sensor_id;sensor_type;location;lat;lon;timestamp;P1;durP1;ratioP1;P2;durP2;ratioP2
22861;SDS011;11598;50.652;6.172;2022-10-16T00:08:37;1.88;;;0.88;;
22861;SDS011;11598;50.652;6.172;2022-10-16T00:18:39;6.15;;;0.68;;
22861;SDS011;11598;50.652;6.172;2022-10-16T00:28:40;1.75;;;0.47;;
22861;SDS011;11598;50.652;6.172;2022-10-16T00:38:41;3.05;;;0.60;;
22861;SDS011;11598;50.652;6.172;2022-10-16T00:48:42;2.93;;;0.43;;
22861;SDS011;11598;50.652;6.172;2022-10-16T00:58:47;1.52;;;0.50;;
22861;SDS011;11598;50.652;6.172;2022-10-16T01:08:57;2.47;;;0.40;;
22861;SDS011;11598;50.652;6.172;2022-10-16T01:19:02;1.23;;;0.50;;
22861;SDS011;11598;50.652;6.172;2022-10-16T01:39:21;2.67;;;0.63;;
22861;SDS011;11598;50.652;6.172;2022-10-16T01:49:32;2.10;;;0.50;;
22861;SDS011;11598;50.652;6.172;2022-10-16T01:59:37;2.55;;;0.55;;
22861;SDS011;11598;50.652;6.172;2022-10-16T02:09:42;2.60;;;0.68;;
22861;SDS011;11598;50.652;6.172;2022-10-16T02:19:42;3.58;;;1.00;;
22861;SDS011;11598;50.652;6.172;2022-10-16T02:29:49;2.92;;;1.00;;
22861;SDS011;11598;50.652;6.172;2022-10-16T02:39:58;5.03;;;0.93;;
22861;SDS011;11598;50.652;6.172;2022-10-16T02:49:59;2.47;;;0.88;;
22861;SDS011;11598;50.652;6.172;2022-10-16T02:59:59;5.80;;;0.90;;
22861;SDS011;11598;50.652;6.172;2022-10-16T03:10:00;3.53;;;1.10;;
22861;SDS011;11598;50.652;6.172;2022-10-16T03:20:00;1.92;;;1.00;;
22861;SDS011;11598;50.652;6.172;2022-10-16T03:30:00;3.25;;;1.10;;
22861;SDS011;11598;50.652;6.172;2022-10-16T03:40:01;4.50;;;1.20;;
22861;SDS011;11598;50.652;6.172;2022-10-16T03:50:02;3.38;;;0.90;;
22861;SDS011;11598;50.652;6.172;2022-10-16T04:00:03;3.58;;;1.13;;
22861;SDS011;11598;50.652;6.172;2022-10-16T04:10:04;4.70;;;1.20;;
22861;SDS011;11598;50.652;6.172;2022-10-16T04:20:05;4.85;;;1.38;;
22861;SDS011;11598;50.652;6.172;2022-10-16T04:30:06;3.13;;;1.10;;
22861;SDS011;11598;50.652;6.172;2022-10-16T04:40:07;4.75;;;1.20;;
22861;SDS011;11598;50.652;6.172;2022-10-16T04:50:08;4.20;;;1.42;;
22861;SDS011;11598;50.652;6.172;2022-10-16T05:00:08;4.45;;;1.25;;
22861;SDS011;11598;50.652;6.172;2022-10-16T05:10:09;3.95;;;0.98;;
22861;SDS011;11598;50.652;6.172;2022-10-16T05:20:09;3.72;;;1.20;;
22861;SDS011;11598;50.652;6.172;2022-10-16T05:30:10;5.80;;;1.10;;
22861;SDS011;11598;50.652;6.172;2022-10-16T05:40:10;3.35;;;1.17;;
22861;SDS011;11598;50.652;6.172;2022-10-16T05:50:12;3.33;;;0.82;;
22861;SDS011;11598;50.652;6.172;2022-10-16T06:00:13;4.80;;;0.90;;
22861;SDS011;11598;50.652;6.172;2022-10-16T06:10:13;2.63;;;0.90;;
22861;SDS011;11598;50.652;6.172;2022-10-16T06:20:14;1.90;;;0.90;;
22861;SDS011;11598;50.652;6.172;2022-10-16T06:30:14;3.10;;;1.05;;
22861;SDS011;11598;50.652;6.172;2022-10-16T06:40:15;3.15;;;0.88;;
22861;SDS011;11598;50.652;6.172;2022-10-16T06:50:15;2.20;;;0.80;;
22861;SDS011;11598;50.652;6.172;2022-10-16T07:00:15;4.55;;;0.80;;
22861;SDS011;11598;50.652;6.172;2022-10-16T07:10:16;2.35;;;0.65;;
22861;SDS011;11598;50.652;6.172;2022-10-16T07:20:16;5.13;;;0.95;;
22861;SDS011;11598;50.652;6.172;2022-10-16T07:30:16;4.78;;;0.95;;
22861;SDS011;11598;50.652;6.172;2022-10-16T07:40:17;2.83;;;0.75;;
22861;SDS011;11598;50.652;6.172;2022-10-16T07:50:17;8.48;;;0.82;;
22861;SDS011;11598;50.652;6.172;2022-10-16T08:00:17;3.85;;;0.85;;
22861;SDS011;11598;50.652;6.172;2022-10-16T08:10:18;4.60;;;0.70;;
22861;SDS011;11598;50.652;6.172;2022-10-16T08:20:20;2.17;;;0.57;;
22861;SDS011;11598;50.652;6.172;2022-10-16T08:30:21;0.70;;;0.20;;
22861;SDS011;11598;50.652;6.172;2022-10-16T08:40:24;4.72;;;0.55;;
22861;SDS011;11598;50.652;6.172;2022-10-16T08:50:27;2.70;;;0.47;;
22861;SDS011;11598;50.652;6.172;2022-10-16T09:00:30;1.83;;;0.40;;
22861;SDS011;11598;50.652;6.172;2022-10-16T09:10:37;2.83;;;0.30;;
22861;SDS011;11598;50.652;6.172;2022-10-16T09:30:45;2.08;;;0.30;;
22861;SDS011;11598;50.652;6.172;2022-10-16T09:40:46;0.90;;;0.20;;
22861;SDS011;11598;50.652;6.172;2022-10-16T09:50:55;2.67;;;0.20;;
22861;SDS011;11598;50.652;6.172;2022-10-16T10:00:56;1.40;;;0.43;;
22861;SDS011;11598;50.652;6.172;2022-10-16T10:10:57;5.82;;;0.57;;
22861;SDS011;11598;50.652;6.172;2022-10-16T10:20:59;3.42;;;0.20;;
22861;SDS011;11598;50.652;6.172;2022-10-16T10:31:03;2.20;;;0.30;;
22861;SDS011;11598;50.652;6.172;2022-10-16T10:41:15;3.72;;;0.30;;
22861;SDS011;11598;50.652;6.172;2022-10-16T10:51:37;1.80;;;0.38;;
22861;SDS011;11598;50.652;6.172;2022-10-16T11:01:54;2.38;;;0.30;;
22861;SDS011;11598;50.652;6.172;2022-10-16T11:12:02;0.70;;;0.22;;
22861;SDS011;11598;50.652;6.172;2022-10-16T11:22:25;1.27;;;0.30;;
22861;SDS011;11598;50.652;6.172;2022-10-16T11:32:33;0.95;;;0.32;;
22861;SDS011;11598;50.652;6.172;2022-10-16T11:42:44;0.98;;;0.28;;
22861;SDS011;11598;50.652;6.172;2022-10-16T11:52:55;1.83;;;0.30;;
22861;SDS011;11598;50.652;6.172;2022-10-16T12:03:08;1.25;;;0.17;;
22861;SDS011;11598;50.652;6.172;2022-10-16T12:13:40;4.75;;;0.40;;
22861;SDS011;11598;50.652;6.172;2022-10-16T12:23:49;2.65;;;0.40;;
22861;SDS011;11598;50.652;6.172;2022-10-16T12:34:02;2.30;;;0.50;;
22861;SDS011;11598;50.652;6.172;2022-10-16T12:44:03;6.07;;;0.63;;
22861;SDS011;11598;50.652;6.172;2022-10-16T13:25:09;1.45;;;0.30;;
22861;SDS011;11598;50.652;6.172;2022-10-16T13:35:26;1.88;;;0.65;;
22861;SDS011;11598;50.652;6.172;2022-10-16T13:45:29;5.05;;;0.32;;
22861;SDS011;11598;50.652;6.172;2022-10-16T13:55:30;0.30;;;0.20;;
22861;SDS011;11598;50.652;6.172;2022-10-16T14:05:31;0.70;;;0.20;;
22861;SDS011;11598;50.652;6.172;2022-10-16T14:15:32;1.17;;;0.38;;
22861;SDS011;11598;50.652;6.172;2022-10-16T14:25:35;1.02;;;0.20;;
22861;SDS011;11598;50.652;6.172;2022-10-16T14:35:36;0.75;;;0.28;;
22861;SDS011;11598;50.652;6.172;2022-10-16T14:45:38;1.45;;;0.20;;
22861;SDS011;11598;50.652;6.172;2022-10-16T14:55:41;1.13;;;0.20;;
22861;SDS011;11598;50.652;6.172;2022-10-16T15:05:42;3.53;;;0.47;;
22861;SDS011;11598;50.652;6.172;2022-10-16T15:15:44;4.03;;;0.30;;
22861;SDS011;11598;50.652;6.172;2022-10-16T15:25:49;1.65;;;0.28;;
22861;SDS011;11598;50.652;6.172;2022-10-16T15:35:51;2.05;;;0.47;;
22861;SDS011;11598;50.652;6.172;2022-10-16T15:56:03;0.70;;;0.38;;
22861;SDS011;11598;50.652;6.172;2022-10-16T16:06:05;2.88;;;0.40;;
22861;SDS011;11598;50.652;6.172;2022-10-16T16:16:08;2.85;;;0.50;;
22861;SDS011;11598;50.652;6.172;2022-10-16T16:26:24;7.90;;;4.18;;
22861;SDS011;11598;50.652;6.172;2022-10-16T16:36:26;2.42;;;1.23;;
22861;SDS011;11598;50.652;6.172;2022-10-16T16:46:27;1.63;;;0.73;;
22861;SDS011;11598;50.652;6.172;2022-10-16T16:56:27;3.03;;;0.98;;
22861;SDS011;11598;50.652;6.172;2022-10-16T17:06:28;5.57;;;1.77;;
22861;SDS011;11598;50.652;6.172;2022-10-16T17:16:32;4.20;;;1.10;;
22861;SDS011;11598;50.652;6.172;2022-10-16T17:26:35;3.57;;;1.43;;
22861;SDS011;11598;50.652;6.172;2022-10-16T17:36:38;3.35;;;1.77;;
22861;SDS011;11598;50.652;6.172;2022-10-16T17:46:42;4.80;;;2.00;;
22861;SDS011;11598;50.652;6.172;2022-10-16T17:56:43;6.18;;;2.15;;
22861;SDS011;11598;50.652;6.172;2022-10-16T18:06:43;5.65;;;2.58;;
22861;SDS011;11598;50.652;6.172;2022-10-16T18:16:44;8.30;;;2.78;;
22861;SDS011;11598;50.652;6.172;2022-10-16T18:26:45;6.35;;;3.08;;
22861;SDS011;11598;50.652;6.172;2022-10-16T18:36:45;6.60;;;2.58;;
22861;SDS011;11598;50.652;6.172;2022-10-16T18:46:45;6.38;;;2.50;;
22861;SDS011;11598;50.652;6.172;2022-10-16T18:56:46;6.75;;;3.00;;
22861;SDS011;11598;50.652;6.172;2022-10-16T19:06:47;8.48;;;3.60;;
22861;SDS011;11598;50.652;6.172;2022-10-16T19:16:49;9.50;;;5.77;;
22861;SDS011;11598;50.652;6.172;2022-10-16T19:26:50;12.05;;;9.30;;
22861;SDS011;11598;50.652;6.172;2022-10-16T19:36:51;13.48;;;9.48;;
22861;SDS011;11598;50.652;6.172;2022-10-16T19:46:52;12.02;;;9.63;;
22861;SDS011;11598;50.652;6.172;2022-10-16T19:56:52;11.90;;;8.10;;
22861;SDS011;11598;50.652;6.172;2022-10-16T20:06:53;13.50;;;8.07;;
22861;SDS011;11598;50.652;6.172;2022-10-16T20:16:54;11.57;;;7.35;;
22861;SDS011;11598;50.652;6.172;2022-10-16T20:26:54;12.00;;;7.47;;
22861;SDS011;11598;50.652;6.172;2022-10-16T20:36:55;11.40;;;7.38;;
22861;SDS011;11598;50.652;6.172;2022-10-16T20:46:55;11.90;;;7.43;;
22861;SDS011;11598;50.652;6.172;2022-10-16T20:56:55;15.40;;;8.60;;
22861;SDS011;11598;50.652;6.172;2022-10-16T21:06:56;10.90;;;7.50;;
22861;SDS011;11598;50.652;6.172;2022-10-16T21:16:57;10.45;;;7.15;;
22861;SDS011;11598;50.652;6.172;2022-10-16T21:26:57;13.25;;;7.00;;
22861;SDS011;11598;50.652;6.172;2022-10-16T21:36:57;11.38;;;6.68;;
22861;SDS011;11598;50.652;6.172;2022-10-16T21:46:58;11.77;;;6.35;;
22861;SDS011;11598;50.652;6.172;2022-10-16T21:56:58;15.57;;;6.43;;
22861;SDS011;11598;50.652;6.172;2022-10-16T22:06:59;11.48;;;6.03;;
22861;SDS011;11598;50.652;6.172;2022-10-16T22:16:59;10.63;;;5.68;;
22861;SDS011;11598;50.652;6.172;2022-10-16T22:26:59;7.88;;;5.28;;
22861;SDS011;11598;50.652;6.172;2022-10-16T22:37:00;13.10;;;5.38;;
22861;SDS011;11598;50.652;6.172;2022-10-16T22:47:00;11.55;;;5.38;;
22861;SDS011;11598;50.652;6.172;2022-10-16T22:57:01;11.05;;;4.97;;
22861;SDS011;11598;50.652;6.172;2022-10-16T23:07:01;14.45;;;4.63;;
22861;SDS011;11598;50.652;6.172;2022-10-16T23:17:01;12.85;;;4.70;;
22861;SDS011;11598;50.652;6.172;2022-10-16T23:27:02;9.45;;;4.60;;
22861;SDS011;11598;50.652;6.172;2022-10-16T23:37:02;11.33;;;4.10;;
22861;SDS011;11598;50.652;6.172;2022-10-16T23:47:05;9.48;;;4.60;;
22861;SDS011;11598;50.652;6.172;2022-10-16T23:57:05;9.32;;;4.78;;
